sensor_id;sensor_type;location;lat;lon;timestamp;temperature;humidity
48946;DHT22;34999;50.940;3.998;2023-03-24T00:02:02;12.70;99.90
48946;DHT22;34999;50.940;3.998;2023-03-24T00:04:30;12.70;99.90
48946;DHT22;34999;50.940;3.998;2023-03-24T00:06:59;12.60;99.90
48946;DHT22;34999;50.940;3.998;2023-03-24T00:09:29;12.60;99.90
48946;DHT22;34999;50.940;3.998;2023-03-24T00:11:58;12.60;99.90
48946;DHT22;34999;50.940;3.998;2023-03-24T00:14:26;12.60;99.90
48946;DHT22;34999;50.940;3.998;2023-03-24T00:16:56;12.60;99.90
48946;DHT22;34999;50.940;3.998;2023-03-24T00:19:27;12.60;99.90
48946;DHT22;34999;50.940;3.998;2023-03-24T00:21:55;12.60;99.90
48946;DHT22;34999;50.940;3.998;2023-03-24T00:24:23;12.60;99.90
48946;DHT22;34999;50.940;3.998;2023-03-24T00:26:52;12.60;99.90
48946;DHT22;34999;50.940;3.998;2023-03-24T00:29:24;12.70;99.90
48946;DHT22;34999;50.940;3.998;2023-03-24T00:31:52;12.70;99.90
48946;DHT22;34999;50.940;3.998;2023-03-24T00:34:21;12.70;99.90
48946;DHT22;34999;50.940;3.998;2023-03-24T00:36:51;12.70;99.90
48946;DHT22;34999;50.940;3.998;2023-03-24T00:39:20;12.80;99.90
48946;DHT22;34999;50.940;3.998;2023-03-24T00:41:48;12.80;99.90
48946;DHT22;34999;50.940;3.998;2023-03-24T00:44:17;12.80;99.90
48946;DHT22;34999;50.940;3.998;2023-03-24T00:46:45;12.90;99.90
48946;DHT22;34999;50.940;3.998;2023-03-24T00:49:23;12.90;99.90
48946;DHT22;34999;50.940;3.998;2023-03-24T00:52:10;12.90;99.90
48946;DHT22;34999;50.940;3.998;2023-03-24T00:54:40;13.00;99.90
48946;DHT22;34999;50.940;3.998;2023-03-24T00:57:09;13.00;99.90
48946;DHT22;34999;50.940;3.998;2023-03-24T00:59:39;13.00;99.90
48946;DHT22;34999;50.940;3.998;2023-03-24T01:02:15;13.10;99.90
48946;DHT22;34999;50.940;3.998;2023-03-24T01:04:45;13.10;99.90
48946;DHT22;34999;50.940;3.998;2023-03-24T01:07:15;13.10;99.90
48946;DHT22;34999;50.940;3.998;2023-03-24T01:09:45;13.10;99.90
48946;DHT22;34999;50.940;3.998;2023-03-24T01:12:18;13.10;99.90
48946;DHT22;34999;50.940;3.998;2023-03-24T01:14:47;13.20;99.90
48946;DHT22;34999;50.940;3.998;2023-03-24T01:17:16;13.20;99.90
48946;DHT22;34999;50.940;3.998;2023-03-24T01:19:45;13.20;99.90
48946;DHT22;34999;50.940;3.998;2023-03-24T01:22:15;13.20;99.90
48946;DHT22;34999;50.940;3.998;2023-03-24T01:24:43;13.20;99.90
48946;DHT22;34999;50.940;3.998;2023-03-24T01:27:12;13.10;99.90
48946;DHT22;34999;50.940;3.998;2023-03-24T01:29:41;13.10;99.90
48946;DHT22;34999;50.940;3.998;2023-03-24T01:32:09;13.10;99.90
48946;DHT22;34999;50.940;3.998;2023-03-24T01:34:38;13.00;99.90
48946;DHT22;34999;50.940;3.998;2023-03-24T01:37:06;12.90;99.90
48946;DHT22;34999;50.940;3.998;2023-03-24T01:39:36;12.90;99.90
48946;DHT22;34999;50.940;3.998;2023-03-24T01:42:04;12.70;99.90
48946;DHT22;34999;50.940;3.998;2023-03-24T01:44:35;12.50;99.90
48946;DHT22;34999;50.940;3.998;2023-03-24T01:47:06;12.30;99.90
48946;DHT22;34999;50.940;3.998;2023-03-24T01:49:37;12.20;99.90
48946;DHT22;34999;50.940;3.998;2023-03-24T01:52:14;12.00;99.90
48946;DHT22;34999;50.940;3.998;2023-03-24T01:54:48;11.90;99.90
48946;DHT22;34999;50.940;3.998;2023-03-24T01:57:21;11.70;99.90
48946;DHT22;34999;50.940;3.998;2023-03-24T01:59:59;11.70;99.90
48946;DHT22;34999;50.940;3.998;2023-03-24T02:02:30;11.60;99.90
48946;DHT22;34999;50.940;3.998;2023-03-24T02:05:02;11.40;99.90
48946;DHT22;34999;50.940;3.998;2023-03-24T02:07:35;11.40;99.90
48946;DHT22;34999;50.940;3.998;2023-03-24T02:10:09;11.30;99.90
48946;DHT22;34999;50.940;3.998;2023-03-24T02:12:39;11.20;99.90
48946;DHT22;34999;50.940;3.998;2023-03-24T02:15:09;11.20;99.90
48946;DHT22;34999;50.940;3.998;2023-03-24T02:17:56;11.10;99.90
48946;DHT22;34999;50.940;3.998;2023-03-24T02:20:37;10.90;99.90
48946;DHT22;34999;50.940;3.998;2023-03-24T02:29:48;10.60;99.90
48946;DHT22;34999;50.940;3.998;2023-03-24T02:41:16;10.60;99.90
48946;DHT22;34999;50.940;3.998;2023-03-24T02:43:55;10.60;99.90
48946;DHT22;34999;50.940;3.998;2023-03-24T02:46:30;10.50;99.90
48946;DHT22;34999;50.940;3.998;2023-03-24T02:49:08;10.50;99.90
48946;DHT22;34999;50.940;3.998;2023-03-24T02:51:42;10.50;99.90
48946;DHT22;34999;50.940;3.998;2023-03-24T02:54:15;10.50;99.90
48946;DHT22;34999;50.940;3.998;2023-03-24T02:56:52;10.50;99.90
48946;DHT22;34999;50.940;3.998;2023-03-24T02:59:29;10.60;99.90
48946;DHT22;34999;50.940;3.998;2023-03-24T03:02:01;10.60;99.90
48946;DHT22;34999;50.940;3.998;2023-03-24T03:04:32;10.60;99.90
48946;DHT22;34999;50.940;3.998;2023-03-24T03:07:06;10.60;99.90
48946;DHT22;34999;50.940;3.998;2023-03-24T03:09:40;10.60;99.90
48946;DHT22;34999;50.940;3.998;2023-03-24T03:12:11;10.50;99.90
48946;DHT22;34999;50.940;3.998;2023-03-24T03:14:45;10.60;99.90
48946;DHT22;34999;50.940;3.998;2023-03-24T03:17:18;10.60;99.90
48946;DHT22;34999;50.940;3.998;2023-03-24T03:19:51;10.60;99.90
48946;DHT22;34999;50.940;3.998;2023-03-24T03:22:24;10.60;99.90
48946;DHT22;34999;50.940;3.998;2023-03-24T03:24:55;10.60;99.90
48946;DHT22;34999;50.940;3.998;2023-03-24T03:27:28;10.60;99.90
48946;DHT22;34999;50.940;3.998;2023-03-24T03:29:59;10.50;99.90
48946;DHT22;34999;50.940;3.998;2023-03-24T03:32:32;10.60;99.90
48946;DHT22;34999;50.940;3.998;2023-03-24T03:35:06;10.50;99.90
48946;DHT22;34999;50.940;3.998;2023-03-24T03:37:41;10.50;99.90
48946;DHT22;34999;50.940;3.998;2023-03-24T03:40:16;10.50;99.90
48946;DHT22;34999;50.940;3.998;2023-03-24T03:42:49;10.50;99.90
48946;DHT22;34999;50.940;3.998;2023-03-24T03:45:18;10.50;99.90
48946;DHT22;34999;50.940;3.998;2023-03-24T03:47:46;10.50;99.90
48946;DHT22;34999;50.940;3.998;2023-03-24T03:50:15;10.50;99.90
48946;DHT22;34999;50.940;3.998;2023-03-24T03:52:44;10.50;99.90
48946;DHT22;34999;50.940;3.998;2023-03-24T03:55:13;10.50;99.90
48946;DHT22;34999;50.940;3.998;2023-03-24T03:57:42;10.60;99.90
48946;DHT22;34999;50.940;3.998;2023-03-24T04:00:15;10.60;99.90
48946;DHT22;34999;50.940;3.998;2023-03-24T04:03:00;10.50;99.90
48946;DHT22;34999;50.940;3.998;2023-03-24T04:05:35;10.50;99.90
48946;DHT22;34999;50.940;3.998;2023-03-24T04:08:24;10.50;99.90
48946;DHT22;34999;50.940;3.998;2023-03-24T04:11:24;10.60;99.90
48946;DHT22;34999;50.940;3.998;2023-03-24T04:14:08;10.60;99.90
48946;DHT22;34999;50.940;3.998;2023-03-24T04:16:49;10.50;99.90
48946;DHT22;34999;50.940;3.998;2023-03-24T04:19:35;10.50;99.90
48946;DHT22;34999;50.940;3.998;2023-03-24T04:22:18;10.60;99.90
48946;DHT22;34999;50.940;3.998;2023-03-24T04:24:53;10.50;99.90
48946;DHT22;34999;50.940;3.998;2023-03-24T04:27:28;10.50;99.90
48946;DHT22;34999;50.940;3.998;2023-03-24T04:30:10;10.50;99.90
48946;DHT22;34999;50.940;3.998;2023-03-24T04:32:48;10.50;99.90
48946;DHT22;34999;50.940;3.998;2023-03-24T04:35:21;10.50;99.90
48946;DHT22;34999;50.940;3.998;2023-03-24T04:38:00;10.50;99.90
48946;DHT22;34999;50.940;3.998;2023-03-24T04:40:33;10.50;99.90
48946;DHT22;34999;50.940;3.998;2023-03-24T04:43:04;10.40;99.90
48946;DHT22;34999;50.940;3.998;2023-03-24T04:45:34;10.40;99.90
48946;DHT22;34999;50.940;3.998;2023-03-24T04:48:06;10.30;99.90
48946;DHT22;34999;50.940;3.998;2023-03-24T04:50:37;10.30;99.90
48946;DHT22;34999;50.940;3.998;2023-03-24T04:53:07;10.20;99.90
48946;DHT22;34999;50.940;3.998;2023-03-24T04:55:57;10.20;99.90
48946;DHT22;34999;50.940;3.998;2023-03-24T04:58:25;10.10;99.90
48946;DHT22;34999;50.940;3.998;2023-03-24T05:00:54;10.10;99.90
48946;DHT22;34999;50.940;3.998;2023-03-24T05:03:26;10.00;99.90
48946;DHT22;34999;50.940;3.998;2023-03-24T05:05:54;9.90;99.90
48946;DHT22;34999;50.940;3.998;2023-03-24T05:08:22;9.80;99.90
48946;DHT22;34999;50.940;3.998;2023-03-24T05:10:50;9.70;99.90
48946;DHT22;34999;50.940;3.998;2023-03-24T05:13:19;9.60;99.90
48946;DHT22;34999;50.940;3.998;2023-03-24T05:15:47;9.60;99.90
48946;DHT22;34999;50.940;3.998;2023-03-24T05:18:15;9.70;99.90
48946;DHT22;34999;50.940;3.998;2023-03-24T05:20:45;9.70;99.90
48946;DHT22;34999;50.940;3.998;2023-03-24T05:23:13;9.70;99.90
48946;DHT22;34999;50.940;3.998;2023-03-24T05:25:41;9.70;99.90
48946;DHT22;34999;50.940;3.998;2023-03-24T05:28:10;9.70;99.90
48946;DHT22;34999;50.940;3.998;2023-03-24T05:30:38;9.70;99.90
48946;DHT22;34999;50.940;3.998;2023-03-24T05:33:06;9.60;99.90
48946;DHT22;34999;50.940;3.998;2023-03-24T05:35:35;9.60;99.90
48946;DHT22;34999;50.940;3.998;2023-03-24T05:38:05;9.60;99.90
48946;DHT22;34999;50.940;3.998;2023-03-24T05:40:33;9.60;99.90
48946;DHT22;34999;50.940;3.998;2023-03-24T05:43:01;9.60;99.90
48946;DHT22;34999;50.940;3.998;2023-03-24T05:45:29;9.60;99.90
48946;DHT22;34999;50.940;3.998;2023-03-24T05:47:57;9.70;99.90
48946;DHT22;34999;50.940;3.998;2023-03-24T05:50:26;9.60;99.90
48946;DHT22;34999;50.940;3.998;2023-03-24T05:52:54;9.70;99.90
48946;DHT22;34999;50.940;3.998;2023-03-24T05:55:23;9.70;99.90
48946;DHT22;34999;50.940;3.998;2023-03-24T05:57:52;9.70;99.90
48946;DHT22;34999;50.940;3.998;2023-03-24T06:00:21;9.80;99.90
48946;DHT22;34999;50.940;3.998;2023-03-24T06:02:50;9.70;99.90
48946;DHT22;34999;50.940;3.998;2023-03-24T06:05:18;9.60;99.90
48946;DHT22;34999;50.940;3.998;2023-03-24T06:07:47;9.60;99.90
48946;DHT22;34999;50.940;3.998;2023-03-24T06:10:16;9.60;99.90
48946;DHT22;34999;50.940;3.998;2023-03-24T06:12:46;9.60;99.90
48946;DHT22;34999;50.940;3.998;2023-03-24T06:15:14;9.60;99.90
48946;DHT22;34999;50.940;3.998;2023-03-24T06:17:43;9.60;99.90
48946;DHT22;34999;50.940;3.998;2023-03-24T06:20:13;9.60;99.90
48946;DHT22;34999;50.940;3.998;2023-03-24T06:22:44;9.70;99.90
48946;DHT22;34999;50.940;3.998;2023-03-24T06:25:14;9.80;99.90
48946;DHT22;34999;50.940;3.998;2023-03-24T06:27:45;9.80;99.90
48946;DHT22;34999;50.940;3.998;2023-03-24T06:30:17;9.80;99.90
48946;DHT22;34999;50.940;3.998;2023-03-24T06:32:45;9.90;99.90
48946;DHT22;34999;50.940;3.998;2023-03-24T06:35:14;9.90;99.90
48946;DHT22;34999;50.940;3.998;2023-03-24T06:37:43;10.00;99.90
48946;DHT22;34999;50.940;3.998;2023-03-24T06:40:12;10.00;99.90
48946;DHT22;34999;50.940;3.998;2023-03-24T06:42:43;10.10;99.90
48946;DHT22;34999;50.940;3.998;2023-03-24T06:45:13;10.10;99.90
48946;DHT22;34999;50.940;3.998;2023-03-24T06:47:41;10.10;99.90
48946;DHT22;34999;50.940;3.998;2023-03-24T06:50:10;10.10;99.90
48946;DHT22;34999;50.940;3.998;2023-03-24T06:52:38;10.30;99.90
48946;DHT22;34999;50.940;3.998;2023-03-24T06:55:08;10.50;99.90
48946;DHT22;34999;50.940;3.998;2023-03-24T06:57:36;10.70;99.90
48946;DHT22;34999;50.940;3.998;2023-03-24T07:00:06;10.80;99.90
48946;DHT22;34999;50.940;3.998;2023-03-24T07:02:38;10.70;99.90
48946;DHT22;34999;50.940;3.998;2023-03-24T07:05:07;10.70;99.90
48946;DHT22;34999;50.940;3.998;2023-03-24T07:07:36;10.70;99.90
48946;DHT22;34999;50.940;3.998;2023-03-24T07:10:25;10.80;99.90
48946;DHT22;34999;50.940;3.998;2023-03-24T07:12:53;10.80;99.90
48946;DHT22;34999;50.940;3.998;2023-03-24T07:15:22;10.90;99.90
48946;DHT22;34999;50.940;3.998;2023-03-24T07:17:51;10.90;99.90
48946;DHT22;34999;50.940;3.998;2023-03-24T07:20:19;10.90;99.90
48946;DHT22;34999;50.940;3.998;2023-03-24T07:22:48;10.90;99.90
48946;DHT22;34999;50.940;3.998;2023-03-24T07:25:16;10.90;99.90
48946;DHT22;34999;50.940;3.998;2023-03-24T07:27:47;10.90;99.90
48946;DHT22;34999;50.940;3.998;2023-03-24T07:30:15;11.00;99.90
48946;DHT22;34999;50.940;3.998;2023-03-24T07:32:51;11.10;99.90
48946;DHT22;34999;50.940;3.998;2023-03-24T07:35:20;11.20;99.90
48946;DHT22;34999;50.940;3.998;2023-03-24T07:37:48;11.30;99.90
48946;DHT22;34999;50.940;3.998;2023-03-24T07:40:17;11.50;99.90
48946;DHT22;34999;50.940;3.998;2023-03-24T07:42:45;11.70;99.90
48946;DHT22;34999;50.940;3.998;2023-03-24T07:45:14;12.00;99.90
48946;DHT22;34999;50.940;3.998;2023-03-24T07:47:43;12.40;99.90
48946;DHT22;34999;50.940;3.998;2023-03-24T07:50:13;12.80;99.90
48946;DHT22;34999;50.940;3.998;2023-03-24T07:52:47;12.70;99.90
48946;DHT22;34999;50.940;3.998;2023-03-24T07:55:16;12.50;99.90
48946;DHT22;34999;50.940;3.998;2023-03-24T07:57:46;12.70;99.90
48946;DHT22;34999;50.940;3.998;2023-03-24T08:00:16;12.90;99.90
48946;DHT22;34999;50.940;3.998;2023-03-24T08:02:51;12.90;99.90
48946;DHT22;34999;50.940;3.998;2023-03-24T08:05:22;13.20;99.90
48946;DHT22;34999;50.940;3.998;2023-03-24T08:07:51;13.40;99.90
48946;DHT22;34999;50.940;3.998;2023-03-24T08:10:21;13.50;99.90
48946;DHT22;34999;50.940;3.998;2023-03-24T08:12:50;13.80;99.90
48946;DHT22;34999;50.940;3.998;2023-03-24T08:15:19;13.80;99.90
48946;DHT22;34999;50.940;3.998;2023-03-24T08:17:48;13.80;99.90
48946;DHT22;34999;50.940;3.998;2023-03-24T08:20:18;13.90;99.90
48946;DHT22;34999;50.940;3.998;2023-03-24T08:22:49;14.10;99.90
48946;DHT22;34999;50.940;3.998;2023-03-24T08:25:22;14.10;99.90
48946;DHT22;34999;50.940;3.998;2023-03-24T08:27:51;14.10;99.90
48946;DHT22;34999;50.940;3.998;2023-03-24T08:30:20;14.50;99.90
48946;DHT22;34999;50.940;3.998;2023-03-24T08:32:50;14.90;99.90
48946;DHT22;34999;50.940;3.998;2023-03-24T08:35:21;15.00;99.90
48946;DHT22;34999;50.940;3.998;2023-03-24T08:37:52;14.80;99.90
48946;DHT22;34999;50.940;3.998;2023-03-24T08:40:22;14.20;99.90
48946;DHT22;34999;50.940;3.998;2023-03-24T08:42:52;13.80;99.90
48946;DHT22;34999;50.940;3.998;2023-03-24T08:45:22;13.50;99.90
48946;DHT22;34999;50.940;3.998;2023-03-24T08:47:54;13.20;99.90
48946;DHT22;34999;50.940;3.998;2023-03-24T08:50:26;13.10;99.90
48946;DHT22;34999;50.940;3.998;2023-03-24T08:52:57;13.10;99.90
48946;DHT22;34999;50.940;3.998;2023-03-24T08:55:25;13.40;99.90
48946;DHT22;34999;50.940;3.998;2023-03-24T08:57:53;13.90;99.90
48946;DHT22;34999;50.940;3.998;2023-03-24T09:00:22;14.00;99.90
48946;DHT22;34999;50.940;3.998;2023-03-24T09:02:53;13.90;99.90
48946;DHT22;34999;50.940;3.998;2023-03-24T09:05:22;13.80;99.90
48946;DHT22;34999;50.940;3.998;2023-03-24T09:08:11;14.00;99.90
48946;DHT22;34999;50.940;3.998;2023-03-24T09:10:40;14.50;99.90
48946;DHT22;34999;50.940;3.998;2023-03-24T09:13:09;14.80;99.90
48946;DHT22;34999;50.940;3.998;2023-03-24T09:15:37;14.70;99.90
48946;DHT22;34999;50.940;3.998;2023-03-24T09:18:06;14.90;99.90
48946;DHT22;34999;50.940;3.998;2023-03-24T09:20:34;15.90;99.90
48946;DHT22;34999;50.940;3.998;2023-03-24T09:23:03;16.60;99.90
48946;DHT22;34999;50.940;3.998;2023-03-24T09:25:32;17.20;99.90
48946;DHT22;34999;50.940;3.998;2023-03-24T09:28:01;17.40;99.90
48946;DHT22;34999;50.940;3.998;2023-03-24T09:30:30;17.60;99.90
48946;DHT22;34999;50.940;3.998;2023-03-24T09:33:01;16.80;99.90
48946;DHT22;34999;50.940;3.998;2023-03-24T09:35:29;16.60;99.90
48946;DHT22;34999;50.940;3.998;2023-03-24T09:37:57;16.90;99.90
48946;DHT22;34999;50.940;3.998;2023-03-24T09:40:27;17.10;99.90
48946;DHT22;34999;50.940;3.998;2023-03-24T09:43:03;17.00;99.90
48946;DHT22;34999;50.940;3.998;2023-03-24T09:45:36;16.70;99.90
48946;DHT22;34999;50.940;3.998;2023-03-24T09:48:11;16.40;99.90
48946;DHT22;34999;50.940;3.998;2023-03-24T09:50:45;15.80;99.90
48946;DHT22;34999;50.940;3.998;2023-03-24T09:53:26;15.40;99.90
48946;DHT22;34999;50.940;3.998;2023-03-24T09:55:55;15.30;99.90
48946;DHT22;34999;50.940;3.998;2023-03-24T09:58:28;15.70;99.90
48946;DHT22;34999;50.940;3.998;2023-03-24T10:00:59;16.60;99.90
48946;DHT22;34999;50.940;3.998;2023-03-24T10:03:28;16.80;99.90
48946;DHT22;34999;50.940;3.998;2023-03-24T10:06:00;16.20;99.90
48946;DHT22;34999;50.940;3.998;2023-03-24T10:08:35;15.40;99.90
48946;DHT22;34999;50.940;3.998;2023-03-24T10:11:06;14.80;99.90
48946;DHT22;34999;50.940;3.998;2023-03-24T10:13:50;14.70;99.90
48946;DHT22;34999;50.940;3.998;2023-03-24T10:16:27;14.90;99.90
48946;DHT22;34999;50.940;3.998;2023-03-24T10:19:03;15.60;99.90
48946;DHT22;34999;50.940;3.998;2023-03-24T10:21:34;15.30;99.90
48946;DHT22;34999;50.940;3.998;2023-03-24T10:24:10;14.70;99.90
48946;DHT22;34999;50.940;3.998;2023-03-24T10:26:47;14.30;99.90
48946;DHT22;34999;50.940;3.998;2023-03-24T10:29:22;14.10;99.90
48946;DHT22;34999;50.940;3.998;2023-03-24T10:31:56;13.90;99.90
48946;DHT22;34999;50.940;3.998;2023-03-24T10:34:27;14.10;99.90
48946;DHT22;34999;50.940;3.998;2023-03-24T10:36:57;14.40;99.90
48946;DHT22;34999;50.940;3.998;2023-03-24T10:39:28;14.40;99.90
48946;DHT22;34999;50.940;3.998;2023-03-24T10:42:14;15.00;99.90
48946;DHT22;34999;50.940;3.998;2023-03-24T10:44:49;15.00;99.90
48946;DHT22;34999;50.940;3.998;2023-03-24T10:47:21;14.80;99.90
48946;DHT22;34999;50.940;3.998;2023-03-24T10:49:52;14.50;99.90
48946;DHT22;34999;50.940;3.998;2023-03-24T10:52:21;14.20;99.90
48946;DHT22;34999;50.940;3.998;2023-03-24T10:54:55;13.90;99.90
48946;DHT22;34999;50.940;3.998;2023-03-24T10:57:25;13.80;99.90
48946;DHT22;34999;50.940;3.998;2023-03-24T10:59:57;13.30;99.90
48946;DHT22;34999;50.940;3.998;2023-03-24T11:02:29;12.70;99.90
48946;DHT22;34999;50.940;3.998;2023-03-24T11:05:00;12.00;99.90
48946;DHT22;34999;50.940;3.998;2023-03-24T11:07:32;11.60;99.90
48946;DHT22;34999;50.940;3.998;2023-03-24T11:10:05;11.20;99.90
48946;DHT22;34999;50.940;3.998;2023-03-24T11:12:35;11.00;99.90
48946;DHT22;34999;50.940;3.998;2023-03-24T11:15:24;10.90;99.90
48946;DHT22;34999;50.940;3.998;2023-03-24T11:17:56;10.90;99.90
48946;DHT22;34999;50.940;3.998;2023-03-24T11:20:29;10.90;99.90
48946;DHT22;34999;50.940;3.998;2023-03-24T11:23:01;11.00;99.90
48946;DHT22;34999;50.940;3.998;2023-03-24T11:25:32;11.00;99.90
48946;DHT22;34999;50.940;3.998;2023-03-24T11:28:02;11.10;99.90
48946;DHT22;34999;50.940;3.998;2023-03-24T11:30:42;11.20;99.90
48946;DHT22;34999;50.940;3.998;2023-03-24T11:33:17;11.50;99.90
48946;DHT22;34999;50.940;3.998;2023-03-24T11:36:06;12.40;99.90
48946;DHT22;34999;50.940;3.998;2023-03-24T11:38:37;13.10;99.90
48946;DHT22;34999;50.940;3.998;2023-03-24T11:41:18;13.30;99.90
48946;DHT22;34999;50.940;3.998;2023-03-24T11:43:48;14.10;99.90
48946;DHT22;34999;50.940;3.998;2023-03-24T11:46:18;14.10;99.90
48946;DHT22;34999;50.940;3.998;2023-03-24T11:48:51;13.80;99.90
48946;DHT22;34999;50.940;3.998;2023-03-24T11:51:26;13.60;99.90
48946;DHT22;34999;50.940;3.998;2023-03-24T11:53:55;13.50;99.90
48946;DHT22;34999;50.940;3.998;2023-03-24T11:56:28;13.10;99.90
48946;DHT22;34999;50.940;3.998;2023-03-24T11:59:00;12.70;99.90
48946;DHT22;34999;50.940;3.998;2023-03-24T12:01:36;12.30;99.90
48946;DHT22;34999;50.940;3.998;2023-03-24T12:04:18;12.00;99.90
48946;DHT22;34999;50.940;3.998;2023-03-24T12:06:59;11.90;99.90
48946;DHT22;34999;50.940;3.998;2023-03-24T12:09:39;11.70;99.90
48946;DHT22;34999;50.940;3.998;2023-03-24T12:12:20;11.40;99.90
48946;DHT22;34999;50.940;3.998;2023-03-24T12:15:04;11.60;99.90
48946;DHT22;34999;50.940;3.998;2023-03-24T12:17:59;12.10;99.90
48946;DHT22;34999;50.940;3.998;2023-03-24T12:20:37;12.90;99.90
48946;DHT22;34999;50.940;3.998;2023-03-24T12:23:11;13.50;99.90
48946;DHT22;34999;50.940;3.998;2023-03-24T12:25:53;14.20;99.90
48946;DHT22;34999;50.940;3.998;2023-03-24T12:28:47;14.70;99.90
48946;DHT22;34999;50.940;3.998;2023-03-24T12:31:41;15.00;99.90
48946;DHT22;34999;50.940;3.998;2023-03-24T12:34:41;15.00;99.90
48946;DHT22;34999;50.940;3.998;2023-03-24T12:37:17;15.30;99.90
48946;DHT22;34999;50.940;3.998;2023-03-24T12:39:53;15.50;99.90
48946;DHT22;34999;50.940;3.998;2023-03-24T12:42:28;15.50;99.90
48946;DHT22;34999;50.940;3.998;2023-03-24T12:45:28;15.30;99.90
48946;DHT22;34999;50.940;3.998;2023-03-24T12:48:18;15.20;99.90
48946;DHT22;34999;50.940;3.998;2023-03-24T12:50:59;15.10;99.90
48946;DHT22;34999;50.940;3.998;2023-03-24T12:53:45;15.40;99.90
48946;DHT22;34999;50.940;3.998;2023-03-24T12:56:18;15.50;99.90
48946;DHT22;34999;50.940;3.998;2023-03-24T12:58:49;15.70;99.90
48946;DHT22;34999;50.940;3.998;2023-03-24T13:01:24;15.90;99.90
48946;DHT22;34999;50.940;3.998;2023-03-24T13:04:00;16.10;99.90
48946;DHT22;34999;50.940;3.998;2023-03-24T13:06:36;16.10;99.90
48946;DHT22;34999;50.940;3.998;2023-03-24T13:09:13;15.80;99.90
48946;DHT22;34999;50.940;3.998;2023-03-24T13:11:49;15.70;99.90
48946;DHT22;34999;50.940;3.998;2023-03-24T13:14:22;15.90;99.90
48946;DHT22;34999;50.940;3.998;2023-03-24T13:16:53;15.60;99.90
48946;DHT22;34999;50.940;3.998;2023-03-24T13:19:23;15.30;99.90
48946;DHT22;34999;50.940;3.998;2023-03-24T13:21:55;15.40;99.90
48946;DHT22;34999;50.940;3.998;2023-03-24T13:24:24;15.40;99.90
48946;DHT22;34999;50.940;3.998;2023-03-24T13:26:58;15.40;99.90
48946;DHT22;34999;50.940;3.998;2023-03-24T13:29:46;15.70;99.90
48946;DHT22;34999;50.940;3.998;2023-03-24T13:32:27;16.10;99.90
48946;DHT22;34999;50.940;3.998;2023-03-24T13:35:00;16.20;99.90
48946;DHT22;34999;50.940;3.998;2023-03-24T13:37:35;15.90;99.90
48946;DHT22;34999;50.940;3.998;2023-03-24T13:40:09;15.50;99.90
48946;DHT22;34999;50.940;3.998;2023-03-24T13:42:42;15.20;99.90
48946;DHT22;34999;50.940;3.998;2023-03-24T13:45:23;14.90;99.90
48946;DHT22;34999;50.940;3.998;2023-03-24T13:48:13;14.90;99.90
48946;DHT22;34999;50.940;3.998;2023-03-24T13:50:52;15.00;99.90
48946;DHT22;34999;50.940;3.998;2023-03-24T13:53:37;15.20;99.90
48946;DHT22;34999;50.940;3.998;2023-03-24T13:56:08;15.50;99.90
48946;DHT22;34999;50.940;3.998;2023-03-24T13:58:49;15.80;99.90
48946;DHT22;34999;50.940;3.998;2023-03-24T14:01:31;15.70;99.90
48946;DHT22;34999;50.940;3.998;2023-03-24T14:04:23;15.60;99.90
48946;DHT22;34999;50.940;3.998;2023-03-24T14:06:53;15.80;99.90
48946;DHT22;34999;50.940;3.998;2023-03-24T14:09:24;15.90;99.90
48946;DHT22;34999;50.940;3.998;2023-03-24T14:12:16;15.90;99.90
48946;DHT22;34999;50.940;3.998;2023-03-24T14:15:14;15.70;99.90
48946;DHT22;34999;50.940;3.998;2023-03-24T14:17:45;15.70;99.90
48946;DHT22;34999;50.940;3.998;2023-03-24T14:20:25;15.90;99.90
48946;DHT22;34999;50.940;3.998;2023-03-24T14:22:54;16.00;99.90
48946;DHT22;34999;50.940;3.998;2023-03-24T14:25:28;16.00;99.90
48946;DHT22;34999;50.940;3.998;2023-03-24T14:28:13;16.00;99.90
48946;DHT22;34999;50.940;3.998;2023-03-24T14:31:00;16.00;99.90
48946;DHT22;34999;50.940;3.998;2023-03-24T14:33:29;16.00;99.90
48946;DHT22;34999;50.940;3.998;2023-03-24T14:36:02;15.90;99.90
48946;DHT22;34999;50.940;3.998;2023-03-24T14:38:35;15.90;99.90
48946;DHT22;34999;50.940;3.998;2023-03-24T14:41:11;15.80;99.90
48946;DHT22;34999;50.940;3.998;2023-03-24T14:43:57;15.70;99.90
48946;DHT22;34999;50.940;3.998;2023-03-24T14:46:38;15.50;99.90
48946;DHT22;34999;50.940;3.998;2023-03-24T14:49:16;15.50;99.90
48946;DHT22;34999;50.940;3.998;2023-03-24T14:51:54;15.80;99.90
48946;DHT22;34999;50.940;3.998;2023-03-24T14:54:33;16.00;99.90
48946;DHT22;34999;50.940;3.998;2023-03-24T14:57:05;15.90;99.90
48946;DHT22;34999;50.940;3.998;2023-03-24T14:59:42;15.80;99.90
48946;DHT22;34999;50.940;3.998;2023-03-24T15:02:22;15.60;99.90
48946;DHT22;34999;50.940;3.998;2023-03-24T15:05:20;15.30;99.90
48946;DHT22;34999;50.940;3.998;2023-03-24T15:08:10;15.00;99.90
48946;DHT22;34999;50.940;3.998;2023-03-24T15:10:43;15.30;99.90
48946;DHT22;34999;50.940;3.998;2023-03-24T15:13:36;15.40;99.90
48946;DHT22;34999;50.940;3.998;2023-03-24T15:16:22;15.60;99.90
48946;DHT22;34999;50.940;3.998;2023-03-24T15:18:53;15.60;99.90
48946;DHT22;34999;50.940;3.998;2023-03-24T15:21:27;15.30;99.90
48946;DHT22;34999;50.940;3.998;2023-03-24T15:23:56;15.20;99.90
48946;DHT22;34999;50.940;3.998;2023-03-24T15:26:28;15.20;99.90
48946;DHT22;34999;50.940;3.998;2023-03-24T15:28:59;15.20;99.90
48946;DHT22;34999;50.940;3.998;2023-03-24T15:31:28;15.30;99.90
48946;DHT22;34999;50.940;3.998;2023-03-24T15:34:21;15.20;99.90
48946;DHT22;34999;50.940;3.998;2023-03-24T15:36:53;15.10;99.90
48946;DHT22;34999;50.940;3.998;2023-03-24T15:39:25;15.10;99.90
48946;DHT22;34999;50.940;3.998;2023-03-24T15:41:54;15.00;99.90
48946;DHT22;34999;50.940;3.998;2023-03-24T15:44:27;15.00;99.90
48946;DHT22;34999;50.940;3.998;2023-03-24T15:46:58;15.00;99.90
48946;DHT22;34999;50.940;3.998;2023-03-24T15:49:32;14.90;99.90
48946;DHT22;34999;50.940;3.998;2023-03-24T15:52:02;14.80;99.90
48946;DHT22;34999;50.940;3.998;2023-03-24T15:54:38;14.80;99.90
48946;DHT22;34999;50.940;3.998;2023-03-24T15:57:15;14.70;99.90
48946;DHT22;34999;50.940;3.998;2023-03-24T15:59:47;14.60;99.90
48946;DHT22;34999;50.940;3.998;2023-03-24T16:02:27;14.50;99.90
48946;DHT22;34999;50.940;3.998;2023-03-24T16:04:59;14.40;99.90
48946;DHT22;34999;50.940;3.998;2023-03-24T16:07:38;14.20;99.90
48946;DHT22;34999;50.940;3.998;2023-03-24T16:10:26;14.10;99.90
48946;DHT22;34999;50.940;3.998;2023-03-24T16:13:16;14.00;99.90
48946;DHT22;34999;50.940;3.998;2023-03-24T16:15:46;13.80;99.90
48946;DHT22;34999;50.940;3.998;2023-03-24T16:18:17;13.80;99.90
48946;DHT22;34999;50.940;3.998;2023-03-24T16:20:47;13.70;99.90
48946;DHT22;34999;50.940;3.998;2023-03-24T16:23:18;13.50;99.90
48946;DHT22;34999;50.940;3.998;2023-03-24T16:25:47;13.50;99.90
48946;DHT22;34999;50.940;3.998;2023-03-24T16:28:21;13.50;99.90